Market Lavington, United Kingdom
Current Conditions -  °F | °C
As of 2:50 PM on Saturday 25 Oct 2014 (Local Time) from EGDM Reporting Station
Broken Clouds Broken Clouds  
Wind Chill: 57°   Ceiling: 3900
Heat Index: 57°   Visibility: 6mi
Dew Point: 48°   Wind: 14mph
Humidity: 72%   Direction: 240°WSW
Pressure: 30.06"   Gusts: NA
Location:  51.29°N, 1.98°W
Report Text: EGDM 251350Z 24012KT 9999 FEW026 BKN039 14/09 Q1018 BLU
Loading
Personal Weather Stations






























Interactive Weather Map
Tropical Storm Tracking
New forecast layout! Learn more

10-Day Weather Forecast

Advertisements
Track Severe Weather on mobile